createdAt,value
2022-12-25T00:00:39.682Z,3.39
2022-12-25T00:03:42.332Z,3.46
2022-12-25T00:06:44.653Z,3.48
2022-12-25T00:09:46.836Z,3.38
2022-12-25T00:12:49.078Z,3.25
2022-12-25T00:15:51.351Z,3.32
2022-12-25T00:18:54.079Z,3.44
2022-12-25T00:21:56.298Z,3.20
2022-12-25T00:24:58.520Z,3.12
2022-12-25T00:28:00.700Z,3.11
2022-12-25T00:31:08.169Z,3.12
2022-12-25T00:34:10.467Z,3.30
2022-12-25T00:37:12.775Z,3.52
2022-12-25T00:40:14.943Z,3.62
2022-12-25T00:43:17.209Z,3.65
2022-12-25T00:46:19.595Z,3.67
2022-12-25T00:49:23.725Z,3.75
2022-12-25T00:52:25.933Z,3.92
2022-12-25T00:55:28.076Z,3.51
2022-12-25T00:58:31.292Z,3.48
2022-12-25T01:01:34.137Z,3.26
2022-12-25T01:04:36.574Z,3.52
2022-12-25T01:07:38.712Z,3.54
2022-12-25T01:10:41.467Z,3.56
2022-12-25T01:13:43.639Z,3.74
2022-12-25T01:16:45.900Z,3.62
2022-12-25T01:19:48.228Z,3.94
2022-12-25T01:22:50.390Z,3.83
2022-12-25T01:25:52.580Z,4.05
2022-12-25T01:28:54.954Z,4.33
2022-12-25T01:31:57.188Z,4.39
2022-12-25T01:34:59.710Z,4.54
2022-12-25T01:38:01.900Z,4.67
2022-12-25T01:41:04.252Z,4.69
2022-12-25T01:44:07.735Z,4.86
2022-12-25T01:47:09.930Z,4.85
2022-12-25T01:50:12.110Z,4.83
2022-12-25T01:53:14.433Z,4.94
2022-12-25T01:56:16.694Z,5.10
2022-12-25T01:59:20.162Z,4.99
2022-12-25T02:02:22.918Z,4.99
2022-12-25T02:05:32.107Z,4.94
2022-12-25T02:08:34.341Z,4.74
2022-12-25T02:11:55.147Z,4.73
2022-12-25T02:15:05.473Z,4.77
2022-12-25T02:18:25.415Z,4.94
2022-12-25T02:21:42.169Z,4.53
2022-12-25T02:24:50.188Z,4.57
2022-12-25T02:28:12.400Z,4.42
2022-12-25T02:31:20.917Z,4.44
2022-12-25T02:34:40.919Z,4.13
2022-12-25T02:37:49.823Z,4.18
2022-12-25T02:40:56.228Z,4.23
2022-12-25T02:44:18.580Z,4.18
2022-12-25T02:47:40.351Z,4.11
2022-12-25T02:51:01.029Z,4.09
2022-12-25T02:54:26.798Z,3.88
2022-12-25T02:57:52.752Z,3.95
2022-12-25T03:01:18.426Z,4.04
2022-12-25T03:04:40.547Z,4.19
2022-12-25T03:07:44.136Z,4.16
2022-12-25T03:11:11.462Z,3.98
2022-12-25T03:14:32.323Z,3.99
2022-12-25T03:17:35.116Z,3.94
2022-12-25T03:20:55.904Z,3.98
2022-12-25T03:24:19.218Z,3.91
2022-12-25T03:27:21.429Z,3.78
2022-12-25T03:30:48.690Z,3.85
2022-12-25T03:34:52.841Z,3.90
2022-12-25T03:38:32.201Z,3.79
2022-12-25T03:42:31.643Z,3.66
2022-12-25T03:46:00.713Z,3.57
2022-12-25T03:49:42.124Z,3.51
2022-12-25T03:53:03.225Z,3.37
2022-12-25T03:56:24.367Z,3.45
2022-12-25T03:59:45.129Z,3.38
2022-12-25T04:03:05.850Z,2.87
2022-12-25T04:06:26.751Z,2.95
2022-12-25T04:09:47.669Z,3.02
2022-12-25T04:13:08.562Z,3.11
2022-12-25T04:16:29.421Z,2.95
2022-12-25T04:19:50.181Z,2.93
2022-12-25T04:23:10.868Z,2.89
2022-12-25T04:26:48.436Z,2.64
2022-12-25T04:30:09.223Z,2.74
2022-12-25T04:33:30.208Z,2.91
2022-12-25T04:36:32.418Z,2.98
2022-12-25T04:39:34.582Z,2.79
2022-12-25T04:42:36.868Z,2.85
2022-12-25T04:45:39.019Z,2.66
2022-12-25T04:48:41.184Z,2.88
2022-12-25T04:51:43.551Z,2.89
2022-12-25T04:54:45.720Z,2.41
2022-12-25T04:57:47.909Z,2.47
2022-12-25T05:00:50.071Z,2.59
2022-12-25T05:03:52.295Z,2.47
2022-12-25T05:06:54.565Z,2.47
2022-12-25T05:09:56.866Z,2.56
2022-12-25T05:12:59.068Z,2.67
2022-12-25T05:16:05.237Z,2.48
2022-12-25T05:19:07.464Z,2.67
2022-12-25T05:22:09.769Z,2.79
2022-12-25T05:25:11.930Z,2.84
2022-12-25T05:28:14.213Z,2.79
2022-12-25T05:31:16.677Z,3.03
2022-12-25T05:34:18.874Z,2.83
2022-12-25T05:37:21.017Z,2.36
2022-12-25T05:40:23.272Z,2.48
2022-12-25T05:43:25.628Z,2.74
2022-12-25T05:46:27.899Z,2.90
2022-12-25T05:49:30.210Z,2.53
2022-12-25T05:52:33.507Z,2.37
2022-12-25T05:55:40.975Z,2.34
2022-12-25T05:58:43.233Z,2.26
2022-12-25T06:01:46.538Z,2.29
2022-12-25T06:04:48.830Z,2.30
2022-12-25T06:07:51.026Z,2.19
2022-12-25T06:10:53.182Z,2.13
2022-12-25T06:13:55.728Z,2.35
2022-12-25T06:16:57.931Z,2.30
2022-12-25T06:20:00.071Z,2.37
2022-12-25T06:23:02.322Z,2.40
2022-12-25T06:26:09.749Z,2.22
2022-12-25T06:29:12.169Z,2.22
2022-12-25T06:32:14.681Z,2.22
2022-12-25T06:35:17.230Z,2.42
2022-12-25T06:38:19.413Z,2.54
2022-12-25T06:41:24.244Z,2.55
2022-12-25T06:44:26.511Z,2.31
2022-12-25T06:47:28.678Z,2.49
2022-12-25T06:50:30.871Z,2.43
2022-12-25T06:53:39.994Z,2.46
2022-12-25T06:56:42.985Z,2.37
2022-12-25T06:59:48.490Z,2.37
2022-12-25T07:02:55.345Z,2.33
2022-12-25T07:05:57.536Z,2.47
2022-12-25T07:09:00.130Z,2.40
2022-12-25T07:12:07.128Z,2.34
2022-12-25T07:15:09.861Z,2.48
2022-12-25T07:18:11.989Z,2.45
2022-12-25T07:21:16.302Z,2.40
2022-12-25T07:24:20.343Z,2.65
2022-12-25T07:27:22.541Z,2.73
2022-12-25T07:30:24.737Z,2.88
2022-12-25T07:33:26.891Z,2.97
2022-12-25T07:36:30.520Z,3.19
2022-12-25T07:39:34.119Z,3.51
2022-12-25T07:42:36.288Z,3.65
2022-12-25T07:45:39.175Z,3.53
2022-12-25T07:48:44.225Z,3.50
2022-12-25T07:51:46.423Z,3.58
2022-12-25T07:54:48.659Z,3.71
2022-12-25T07:57:50.887Z,3.81
2022-12-25T08:00:53.225Z,3.85
2022-12-25T08:04:00.396Z,4.02
2022-12-25T08:07:02.630Z,4.13
2022-12-25T08:10:05.207Z,4.20
2022-12-25T08:13:13.960Z,4.33
2022-12-25T08:16:16.773Z,4.47
2022-12-25T08:19:19.026Z,4.75
2022-12-25T08:22:21.172Z,4.85
2022-12-25T08:25:23.348Z,4.89
2022-12-25T08:28:25.646Z,5.05
2022-12-25T08:31:29.215Z,5.25
2022-12-25T08:34:31.508Z,5.51
2022-12-25T08:37:33.679Z,5.75
2022-12-25T08:40:35.841Z,5.85
2022-12-25T08:43:38.098Z,6.04
2022-12-25T08:46:40.593Z,6.13
2022-12-25T08:49:42.834Z,6.26
2022-12-25T08:52:45.418Z,6.38
2022-12-25T08:55:47.700Z,6.53
2022-12-25T08:58:49.945Z,6.64
2022-12-25T09:01:52.185Z,6.73
2022-12-25T09:04:54.483Z,6.81
2022-12-25T09:07:56.647Z,7.05
2022-12-25T09:11:07.256Z,7.20
2022-12-25T09:14:09.878Z,7.09
2022-12-25T09:17:12.091Z,7.27
2022-12-25T09:20:14.264Z,7.50
2022-12-25T09:23:16.436Z,7.70
2022-12-25T09:26:19.282Z,8.11
2022-12-25T09:29:21.507Z,8.14
2022-12-25T09:32:23.649Z,8.38
2022-12-25T09:35:25.819Z,8.27
2022-12-25T09:38:28.296Z,8.32
2022-12-25T09:41:34.301Z,8.27
2022-12-25T09:44:41.159Z,8.29
2022-12-25T09:47:44.892Z,8.43
2022-12-25T09:50:53.486Z,8.52
2022-12-25T09:54:03.126Z,8.49
2022-12-25T09:57:06.229Z,8.51
2022-12-25T10:00:17.018Z,8.55
2022-12-25T10:03:46.802Z,8.62
2022-12-25T10:07:18.724Z,8.69
2022-12-25T10:10:36.097Z,8.69
2022-12-25T10:14:28.858Z,8.62
2022-12-25T10:17:36.576Z,8.47
2022-12-25T10:20:51.683Z,8.35
2022-12-25T10:23:59.816Z,8.39
2022-12-25T10:27:05.130Z,8.37
2022-12-25T10:30:27.324Z,8.47
2022-12-25T10:33:29.580Z,8.57
2022-12-25T10:36:32.681Z,8.73
2022-12-25T10:39:34.855Z,8.82
2022-12-25T10:42:43.723Z,8.72
2022-12-25T10:45:47.442Z,8.93
2022-12-25T10:48:58.525Z,9.01
2022-12-25T10:52:02.002Z,8.95
2022-12-25T10:55:22.362Z,8.94
2022-12-25T10:58:28.025Z,9.04
2022-12-25T11:01:30.292Z,9.12
2022-12-25T11:04:35.079Z,9.27
2022-12-25T11:07:46.703Z,9.30
2022-12-25T11:10:54.618Z,9.35
2022-12-25T11:13:59.885Z,9.45
2022-12-25T11:17:10.001Z,9.46
2022-12-25T11:20:24.479Z,9.61
2022-12-25T11:23:29.550Z,9.66
2022-12-25T11:26:46.133Z,9.71
2022-12-25T11:29:51.544Z,9.74
2022-12-25T11:32:56.277Z,9.80
2022-12-25T11:36:02.126Z,9.87
2022-12-25T11:39:34.680Z,9.94
2022-12-25T11:42:39.847Z,10.03
2022-12-25T11:45:49.301Z,10.07
2022-12-25T11:48:59.563Z,10.07
2022-12-25T11:52:01.938Z,10.12
2022-12-25T11:55:07.796Z,10.19
2022-12-25T11:58:22.769Z,10.31
2022-12-25T12:01:42.515Z,10.44
2022-12-25T12:04:48.613Z,10.72
2022-12-25T12:07:57.795Z,10.77
2022-12-25T12:11:15.905Z,11.04
2022-12-25T12:14:43.445Z,11.10
2022-12-25T12:17:45.727Z,11.26
2022-12-25T12:21:25.980Z,11.24
2022-12-25T12:24:39.580Z,11.24
2022-12-25T12:27:42.120Z,11.38
2022-12-25T12:30:44.383Z,11.38
2022-12-25T12:33:53.649Z,11.39
2022-12-25T12:37:02.109Z,11.49
2022-12-25T12:40:06.136Z,11.58
2022-12-25T12:43:30.037Z,11.74
2022-12-25T12:46:36.260Z,11.85
2022-12-25T12:49:38.483Z,11.83
2022-12-25T12:52:42.679Z,11.85
2022-12-25T12:55:44.886Z,11.86
2022-12-25T12:58:50.775Z,11.74
2022-12-25T13:02:05.716Z,11.82
2022-12-25T13:05:34.784Z,11.72
2022-12-25T13:09:04.565Z,11.77
2022-12-25T13:12:08.226Z,11.86
2022-12-25T13:15:14.342Z,11.83
2022-12-25T13:18:16.781Z,11.66
2022-12-25T13:21:23.304Z,11.61
2022-12-25T13:24:31.051Z,11.52
2022-12-25T13:27:33.926Z,11.49
2022-12-25T13:30:36.157Z,11.40
2022-12-25T13:33:39.019Z,11.28
2022-12-25T13:36:41.196Z,11.35
2022-12-25T13:39:53.815Z,11.24
2022-12-25T13:42:59.466Z,10.91
2022-12-25T13:46:01.703Z,10.75
2022-12-25T13:49:09.908Z,10.86
2022-12-25T13:52:18.356Z,10.74
2022-12-25T13:55:26.518Z,10.88
2022-12-25T13:58:30.755Z,10.94
2022-12-25T14:01:33.085Z,10.91
2022-12-25T14:04:44.060Z,11.06
2022-12-25T14:07:51.296Z,11.03
2022-12-25T14:10:54.311Z,10.89
2022-12-25T14:14:06.598Z,10.81
2022-12-25T14:17:10.566Z,10.86
2022-12-25T14:20:27.473Z,10.63
2022-12-25T14:23:43.895Z,10.46
2022-12-25T14:26:46.089Z,10.40
2022-12-25T14:29:49.280Z,10.28
2022-12-25T14:32:54.032Z,10.08
2022-12-25T14:35:56.734Z,10.05
2022-12-25T14:39:04.056Z,9.75
2022-12-25T14:42:25.069Z,9.59
2022-12-25T14:45:33.951Z,9.57
2022-12-25T14:48:36.137Z,9.53
2022-12-25T14:51:39.086Z,9.53
2022-12-25T14:54:58.023Z,9.52
2022-12-25T14:58:04.648Z,9.58
2022-12-25T15:01:06.906Z,9.53
2022-12-25T15:04:12.227Z,9.52
2022-12-25T15:07:43.833Z,9.54
2022-12-25T15:11:03.018Z,9.61
2022-12-25T15:14:05.582Z,9.52
2022-12-25T15:17:26.844Z,9.49
2022-12-25T15:20:31.982Z,9.46
2022-12-25T15:23:34.268Z,9.47
2022-12-25T15:26:36.422Z,9.46
2022-12-25T15:33:03.073Z,9.35
2022-12-25T15:36:05.387Z,9.34
2022-12-25T15:39:07.605Z,9.32
2022-12-25T15:42:18.551Z,9.54
2022-12-25T15:45:24.114Z,9.86
2022-12-25T15:48:26.329Z,9.87
2022-12-25T15:51:28.498Z,9.78
2022-12-25T15:54:32.093Z,9.67
2022-12-25T15:57:35.192Z,9.58
2022-12-25T16:00:37.411Z,9.54
2022-12-25T16:03:39.638Z,9.51
2022-12-25T16:06:41.832Z,9.37
2022-12-25T16:09:44.044Z,9.35
2022-12-25T16:12:46.841Z,9.25
2022-12-25T16:15:49.072Z,9.16
2022-12-25T16:18:51.267Z,9.16
2022-12-25T16:21:53.456Z,9.26
2022-12-25T16:24:55.833Z,9.14
2022-12-25T16:27:58.043Z,9.12
2022-12-25T16:31:00.234Z,9.11
2022-12-25T16:34:03.100Z,9.00
2022-12-25T16:37:05.514Z,9.02
2022-12-25T16:40:09.616Z,9.02
2022-12-25T16:43:11.776Z,9.07
2022-12-25T16:46:16.479Z,9.06
2022-12-25T16:49:18.915Z,9.03
2022-12-25T16:52:21.387Z,9.00
2022-12-25T16:55:29.417Z,8.97
2022-12-25T16:58:32.017Z,8.96
2022-12-25T17:01:34.389Z,8.94
2022-12-25T17:04:36.707Z,8.93
2022-12-25T17:07:39.352Z,8.94
2022-12-25T17:10:42.535Z,8.97
2022-12-25T17:13:47.984Z,9.01
2022-12-25T17:16:51.251Z,8.96
2022-12-25T17:19:53.545Z,8.93
2022-12-25T17:22:56.118Z,8.86
2022-12-25T17:26:01.981Z,8.88
2022-12-25T17:29:04.232Z,8.86
2022-12-25T17:32:11.103Z,8.81
2022-12-25T17:35:13.264Z,8.88
2022-12-25T17:38:15.427Z,8.81
2022-12-25T17:41:18.855Z,8.82
2022-12-25T17:44:21.188Z,8.90
2022-12-25T17:47:23.360Z,8.93
2022-12-25T17:50:25.745Z,9.04
2022-12-25T17:53:28.250Z,9.04
2022-12-25T17:56:31.053Z,8.98
2022-12-25T17:59:33.361Z,9.03
2022-12-25T18:02:35.722Z,9.06
2022-12-25T18:05:38.171Z,8.96
2022-12-25T18:08:41.639Z,8.88
2022-12-25T18:11:43.969Z,8.86
2022-12-25T18:14:46.128Z,8.83
2022-12-25T18:17:48.292Z,8.91
2022-12-25T18:20:53.544Z,8.79
2022-12-25T18:23:56.036Z,9.02
2022-12-25T18:26:58.153Z,9.01
2022-12-25T18:30:00.357Z,8.88
2022-12-25T18:33:02.621Z,9.02
2022-12-25T18:36:05.132Z,9.05
2022-12-25T18:39:07.291Z,9.16
2022-12-25T18:42:28.109Z,9.19
2022-12-25T18:45:30.339Z,9.28
2022-12-25T18:48:33.643Z,9.20
2022-12-25T18:51:37.225Z,9.17
2022-12-25T18:54:39.547Z,9.17
2022-12-25T18:57:41.734Z,9.25
2022-12-25T19:00:44.316Z,9.29
2022-12-25T19:03:48.084Z,9.19
2022-12-25T19:06:51.003Z,9.16
2022-12-25T19:09:53.185Z,9.10
2022-12-25T19:12:55.379Z,9.04
2022-12-25T19:15:59.522Z,9.06
2022-12-25T19:19:02.578Z,9.07
2022-12-25T19:22:05.399Z,9.06
2022-12-25T19:25:08.196Z,9.05
2022-12-25T19:28:10.369Z,9.04
2022-12-25T19:31:13.189Z,9.12
2022-12-25T19:34:15.416Z,9.22
2022-12-25T19:37:17.684Z,9.27
2022-12-25T19:40:19.952Z,9.37
2022-12-25T19:43:22.162Z,9.44
2022-12-25T19:46:30.946Z,9.52
2022-12-25T19:49:33.133Z,9.52
2022-12-25T19:52:35.909Z,9.49
2022-12-25T19:55:38.174Z,9.42
2022-12-25T19:58:40.736Z,9.43
2022-12-25T20:01:43.570Z,9.38
2022-12-25T20:04:45.906Z,9.39
2022-12-25T20:07:48.068Z,9.33
2022-12-25T20:10:50.323Z,9.33
2022-12-25T20:13:53.043Z,9.32
2022-12-25T20:16:55.241Z,9.27
2022-12-25T20:19:57.450Z,9.23
2022-12-25T20:23:00.874Z,9.31
2022-12-25T20:26:05.110Z,9.24
2022-12-25T20:29:07.525Z,9.23
2022-12-25T20:32:11.102Z,9.25
2022-12-25T20:35:19.268Z,9.19
2022-12-25T20:38:21.460Z,9.20
2022-12-25T20:41:26.745Z,9.24
2022-12-25T20:44:29.360Z,9.24
2022-12-25T20:47:31.520Z,9.19
2022-12-25T20:50:33.851Z,9.18
2022-12-25T20:53:37.025Z,9.14
2022-12-25T20:56:40.338Z,9.19
2022-12-25T20:59:43.324Z,9.12
2022-12-25T21:02:45.760Z,9.02
2022-12-25T21:05:55.716Z,9.07
2022-12-25T21:08:57.935Z,9.03
2022-12-25T21:12:00.150Z,9.12
2022-12-25T21:15:02.667Z,9.14
2022-12-25T21:18:04.954Z,9.04
2022-12-25T21:21:07.895Z,9.10
2022-12-25T21:24:10.716Z,9.02
2022-12-25T21:27:13.100Z,9.09
2022-12-25T21:30:16.110Z,9.10
2022-12-25T21:33:37.100Z,9.10
2022-12-25T21:36:41.305Z,9.13
2022-12-25T21:39:43.590Z,9.13
2022-12-25T21:42:45.769Z,9.03
2022-12-25T21:45:48.012Z,9.11
2022-12-25T21:48:50.857Z,9.01
2022-12-25T21:52:08.042Z,9.13
2022-12-25T21:55:10.222Z,9.10
2022-12-25T21:58:12.562Z,9.17
2022-12-25T22:01:17.471Z,9.09
2022-12-25T22:04:22.458Z,9.03
2022-12-25T22:07:24.604Z,8.98
2022-12-25T22:10:27.385Z,8.97
2022-12-25T22:13:48.395Z,8.82
2022-12-25T22:17:09.373Z,8.88
2022-12-25T22:20:23.798Z,8.82
2022-12-25T22:23:25.965Z,8.83
2022-12-25T22:26:28.128Z,8.65
2022-12-25T22:29:30.431Z,8.61
2022-12-25T22:32:32.661Z,8.71
2022-12-25T22:35:34.848Z,8.58
2022-12-25T22:38:37.060Z,8.49
2022-12-25T22:41:39.230Z,8.37
2022-12-25T22:44:41.474Z,8.28
2022-12-25T22:47:43.640Z,8.29
2022-12-25T22:50:45.843Z,8.17
2022-12-25T22:53:48.848Z,8.30
2022-12-25T22:56:53.536Z,7.99
2022-12-25T22:59:55.707Z,7.63
2022-12-25T23:02:58.257Z,7.17
2022-12-25T23:06:00.801Z,7.04
2022-12-25T23:09:04.508Z,7.02
2022-12-25T23:12:06.747Z,6.96
2022-12-25T23:15:09.374Z,6.89
2022-12-25T23:18:30.148Z,6.71
2022-12-25T23:21:51.043Z,6.56
2022-12-25T23:25:11.847Z,6.43
2022-12-25T23:28:14.059Z,6.42
2022-12-25T23:31:16.489Z,6.32
2022-12-25T23:34:18.926Z,6.28
2022-12-25T23:37:22.564Z,6.37
2022-12-25T23:40:24.971Z,6.55
2022-12-25T23:43:27.235Z,6.61
2022-12-25T23:46:29.571Z,6.72
2022-12-25T23:49:31.807Z,6.49
2022-12-25T23:52:34.017Z,6.61
2022-12-25T23:55:36.406Z,6.54
2022-12-25T23:58:38.703Z,6.38
